DTTJ METAR and TAF | Updated Today

DTTJ METAR

Djerba Zarzis International Airport

Observation time: 2:30 hr. ago

DTTJ 051900Z 05010KT 9999 FEW020 15/07 Q1026 NOSIG

Need help? Read our tutorial on how to read METARs or read the parsed version below.

Djerba Zarzis International Airport (DTTJ) METAR

  • Weather conditions on Sun, 05 Feb 2023 19:00:00 +0000 (2:30 hr. ago):
  • Present conditions: Dry
  • Clouds: A few at 610 meters
  • Visibility: Greater than 10 km
  • Wind: 50 degrees at 10 knots
  • Temperature: 15 celsius
  • Dew point: 7 celsius
  • Pressure: 1026 millibars
  • Remarks: None


Useful to know...

DTTJ TAF

Djerba Zarzis International Airport

TAF DTTJ 051700Z 0518/0618 04009KT 9999 FEW020 TEMPO 0518/0521 02020G30KT BECMG 0616/0618 13010KT
Observation time: 4:30 hr. ago
Need help? Read our tutorial on how to read TAFs or read the parsed version below.

Parsed version of TAF for Djerba Zarzis International Airport (DTTJ)

  • From 05 February at 18:00 UTC, to day 06 of the month at 18:00 UTC
  • Clouds: A few at 610 meters
  • Visibility: Greater than 10 km
  • Wind: 40 degrees at 9
  • Expected to arise temporarily, from 05 February at 18:00 UTC, to day 05 of the month at 21:00 UTC
  • Wind: 20 degrees at 20
  • Expected to arise soon, from 06 February at 16:00 UTC, to day 06 of the month at 18:00 UTC
  • Wind: 130 degrees at 10

Airports near DTTJ

No airports found within 100nm radius.